AirNav   Pilot Hours Calculator
 
 928 users online  

FA53 Eagles Nest Heliport
Auburndale, Florida, USA

GOING TO AUBURNDALE?


FAA INFORMATION EFFECTIVE 05 DECEMBER 2019

Location

FAA Identifier: FA53
Lat/Long: 28-02-38.0000N 081-50-55.0000W
28-02.633333N 081-50.916667W
28.0438889,-81.8486111
(estimated)
Elevation: 125 ft. / 38 m (estimated)
Variation: 04W (2000)
From city: 5 miles SW of AUBURNDALE, FL
Time zone: UTC -5 (UTC -4 during Daylight Saving Time)
Zip code: 33823

Heliport Operations

Heliport use: Private use. Permission required prior to landing
Activation date: 05/2001
Control tower: no
ARTCC: MIAMI CENTER
FSS: SAINT PETERSBURG FLIGHT SERVICE STATION
Attendance: IREG
Wind indicator: yes
Segmented circle: no

Heliport Communications

WX ASOS at GIF (5 nm E): 133.675 (863-956-2097)
WX AWOS-3 at BOW (7 nm SE): 123.775 (863-533-9004)
WX AWOS-3PT at LAL (10 nm W): 118.025 (863-834-2030)
WX AWOS-3 at X07 (15 nm SE): 124.225 (863-678-1334)
WX AWOS-3 at PCM (17 nm W): 120.025 (813-764-8259)
WX AWOS-3PT at ZPH (20 nm NW): 118.975 (813-780-0031)

Nearby radio navigation aids

VOR radial/distance  VOR name  Freq  Var
LALr067/9.4LAKELAND VORTAC116.0001E

Heliport Services

Runway Information

Helipad H1

Dimensions: 500 x 20 ft. / 152 x 6 m
Surface: turf
Traffic pattern: leftleft

Heliport Ownership and Management from official FAA records

Ownership: Privately-owned
Owner: LARRY GROOVER
5002 BARLOW LOOP ROAD
LAKELAND, FL 33811
Phone 863-647-3439
Manager: LARRY GROOVER
1633 TAYOR ST
AUBURNDALE, FL 33823
Phone 863-665-4512

Heliport Operational Statistics

Aircraft based on the field: 1
Helicopters: 1
    

Additional Remarks

FOR CD CTC TAMPA APCH AT 813-878-2528

Instrument Procedures

There are no published instrument procedures at FA53.

Some nearby airports with instrument procedures:

KGIF - Winter Haven Regional Airport (5 nm E)
KBOW - Bartow Executive Airport (7 nm SE)
KLAL - Lakeland Linder International Airport (10 nm W)
X07 - Lake Wales Municipal Airport (15 nm SE)
KPCM - Plant City Airport (17 nm W)
KZPH - Zephyrhills Municipal Airport (20 nm NW)
 
Loc | Ops | Rwys | IFR | FBO | Links
Com | Nav | Svcs | Stats | Notes


 
Area around FA53 (Eagles Nest Heliport)
 
Road maps at: MapQuest Bing Google
 
Aerial photo
No photo
 
Sectional chart

 
Airport distance calculator
Flying to Eagles Nest Heliport? Find the distance to fly.

From to FA53

Sunrise and sunset
Times for 12-Dec-2019
 Local
(UTC-5)
 Zulu
(UTC)
Morning civil twilight06:4511:45
Sunrise07:1012:10
Sunset17:3222:32
Evening civil twilight17:5822:58

Current date and time
Zulu (UTC)  13-Dec-2019 01:39:25
Local (UTC-5)  12-Dec-2019 20:39:25
 
METAR
KGIF 
5nm E 
130118Z AUTO 10009KT 10SM BKN010 OVC015 22/19 A3018 RMK AO2 CIG 007V012 T02170194
KBOW 
8nm SE 
130115Z AUTO 09007KT 10SM BKN010 BKN014 OVC100 21/20 A3016 RMK AO2
KLAL 
10nm SW 
130050Z 10008KT 4SM -RA OVC009 22/19 A3017
KX07 
15nm SE 
130115Z AUTO 11005KT 10SM FEW011 SCT075 BKN110 20/20 A3017 RMK A01
KPCM 
17nm W 
130115Z AUTO 09006KT 10SM BKN010 BKN014 BKN020 21/21 A3018 RMK AO2
KZPH 
20nm NW 
130115Z AUTO 05005KT 2SM -RA BR BKN006 OVC010 20/20 A3017 RMK A02 T02030199
TAF
KLAL 
10nm SW 
121723Z 1218/1318 07012G17KT P6SM VCSH BKN015 OVC100 FM130000 08007KT P6SM BKN025 FM131500 16007KT P6SM OVC100
NOTAMs
Click for the latest NOTAMs
NOTAMs are issued by the DoD/FAA and will open in a separate window not controlled by AirNav.

 

 
 

Would you like to see your business listed on this page?

 If your business provides an interesting product or service to pilots, flight crews, aircraft, or users of the Eagles Nest Heliport, you should consider listing it here.  To start the listing process, click on the button below
 
Add a business
 

Other Pages about Eagles Nest Heliport

Update a link
 
Copyright © AirNav, LLC. All rights reserved. Privacy Policy  Contact